sensor_id;sensor_type;location;lat;lon;timestamp;temperature;humidity
18091;DHT22;9172;49.948;9.208;2023-07-31T00:00:08;18.00;99.90
18091;DHT22;9172;49.948;9.208;2023-07-31T00:02:38;18.00;99.90
18091;DHT22;9172;49.948;9.208;2023-07-31T00:05:09;18.00;99.90
18091;DHT22;9172;49.948;9.208;2023-07-31T00:07:38;18.00;99.90
18091;DHT22;9172;49.948;9.208;2023-07-31T00:10:09;18.00;99.90
18091;DHT22;9172;49.948;9.208;2023-07-31T00:12:39;18.00;99.90
18091;DHT22;9172;49.948;9.208;2023-07-31T00:15:09;18.00;99.90
18091;DHT22;9172;49.948;9.208;2023-07-31T00:17:38;18.00;99.90
18091;DHT22;9172;49.948;9.208;2023-07-31T00:20:08;17.90;99.90
18091;DHT22;9172;49.948;9.208;2023-07-31T00:22:37;18.00;99.90
18091;DHT22;9172;49.948;9.208;2023-07-31T00:25:06;17.90;99.90
18091;DHT22;9172;49.948;9.208;2023-07-31T00:27:35;17.90;99.90
18091;DHT22;9172;49.948;9.208;2023-07-31T00:30:06;17.90;99.90
18091;DHT22;9172;49.948;9.208;2023-07-31T00:32:34;17.90;99.90
18091;DHT22;9172;49.948;9.208;2023-07-31T00:35:05;17.90;99.90
18091;DHT22;9172;49.948;9.208;2023-07-31T00:37:34;17.90;99.90
18091;DHT22;9172;49.948;9.208;2023-07-31T00:40:03;17.90;99.90
18091;DHT22;9172;49.948;9.208;2023-07-31T00:42:32;17.90;99.90
18091;DHT22;9172;49.948;9.208;2023-07-31T00:45:00;17.90;99.90
18091;DHT22;9172;49.948;9.208;2023-07-31T00:47:29;17.90;99.90
18091;DHT22;9172;49.948;9.208;2023-07-31T00:49:59;17.90;99.90
18091;DHT22;9172;49.948;9.208;2023-07-31T00:52:27;17.90;99.90
18091;DHT22;9172;49.948;9.208;2023-07-31T00:54:57;17.90;99.90
18091;DHT22;9172;49.948;9.208;2023-07-31T00:57:27;17.90;99.90
18091;DHT22;9172;49.948;9.208;2023-07-31T00:59:56;17.90;99.90
18091;DHT22;9172;49.948;9.208;2023-07-31T01:02:26;17.90;99.90
18091;DHT22;9172;49.948;9.208;2023-07-31T01:04:56;18.00;99.90
18091;DHT22;9172;49.948;9.208;2023-07-31T01:07:30;18.00;99.90
18091;DHT22;9172;49.948;9.208;2023-07-31T01:10:01;17.90;99.90
18091;DHT22;9172;49.948;9.208;2023-07-31T01:12:31;18.00;99.90
18091;DHT22;9172;49.948;9.208;2023-07-31T01:15:05;18.00;99.90
18091;DHT22;9172;49.948;9.208;2023-07-31T01:17:33;18.00;99.90
18091;DHT22;9172;49.948;9.208;2023-07-31T01:20:05;18.00;99.90
18091;DHT22;9172;49.948;9.208;2023-07-31T01:22:58;18.00;99.90
18091;DHT22;9172;49.948;9.208;2023-07-31T01:28:10;18.00;99.90
18091;DHT22;9172;49.948;9.208;2023-07-31T01:30:41;18.00;99.90
18091;DHT22;9172;49.948;9.208;2023-07-31T01:33:10;18.00;99.90
18091;DHT22;9172;49.948;9.208;2023-07-31T01:35:41;18.00;99.90
18091;DHT22;9172;49.948;9.208;2023-07-31T01:38:10;17.90;99.90
18091;DHT22;9172;49.948;9.208;2023-07-31T01:40:42;18.00;99.90
18091;DHT22;9172;49.948;9.208;2023-07-31T01:43:13;17.90;99.90
18091;DHT22;9172;49.948;9.208;2023-07-31T01:45:42;17.90;99.90
18091;DHT22;9172;49.948;9.208;2023-07-31T01:48:12;17.90;99.90
18091;DHT22;9172;49.948;9.208;2023-07-31T01:50:41;17.90;99.90
18091;DHT22;9172;49.948;9.208;2023-07-31T01:53:10;18.00;99.90
18091;DHT22;9172;49.948;9.208;2023-07-31T01:55:40;18.00;99.90
18091;DHT22;9172;49.948;9.208;2023-07-31T01:58:09;17.90;99.90
18091;DHT22;9172;49.948;9.208;2023-07-31T02:00:39;17.90;99.90
18091;DHT22;9172;49.948;9.208;2023-07-31T02:03:08;17.90;99.90
18091;DHT22;9172;49.948;9.208;2023-07-31T02:05:37;18.00;99.90
18091;DHT22;9172;49.948;9.208;2023-07-31T02:08:08;18.00;99.90
18091;DHT22;9172;49.948;9.208;2023-07-31T02:10:36;18.00;99.90
18091;DHT22;9172;49.948;9.208;2023-07-31T02:13:05;18.00;99.90
18091;DHT22;9172;49.948;9.208;2023-07-31T02:15:34;18.00;99.90
18091;DHT22;9172;49.948;9.208;2023-07-31T02:18:03;18.00;99.90
18091;DHT22;9172;49.948;9.208;2023-07-31T02:20:34;18.00;99.90
18091;DHT22;9172;49.948;9.208;2023-07-31T02:23:03;17.90;99.90
18091;DHT22;9172;49.948;9.208;2023-07-31T02:25:32;18.00;99.90
18091;DHT22;9172;49.948;9.208;2023-07-31T02:28:01;17.90;99.90
18091;DHT22;9172;49.948;9.208;2023-07-31T02:30:34;17.90;99.90
18091;DHT22;9172;49.948;9.208;2023-07-31T02:33:03;17.90;99.90
18091;DHT22;9172;49.948;9.208;2023-07-31T02:35:32;17.90;99.90
18091;DHT22;9172;49.948;9.208;2023-07-31T02:38:01;17.90;99.90
18091;DHT22;9172;49.948;9.208;2023-07-31T02:40:31;17.90;99.90
18091;DHT22;9172;49.948;9.208;2023-07-31T02:43:00;18.00;99.90
18091;DHT22;9172;49.948;9.208;2023-07-31T02:45:29;18.00;99.90
18091;DHT22;9172;49.948;9.208;2023-07-31T02:47:57;18.00;99.90
18091;DHT22;9172;49.948;9.208;2023-07-31T02:50:27;18.00;99.90
18091;DHT22;9172;49.948;9.208;2023-07-31T02:52:56;17.90;99.90
18091;DHT22;9172;49.948;9.208;2023-07-31T02:55:24;17.90;99.90
18091;DHT22;9172;49.948;9.208;2023-07-31T02:57:53;17.90;99.90
18091;DHT22;9172;49.948;9.208;2023-07-31T03:00:21;17.90;99.90
18091;DHT22;9172;49.948;9.208;2023-07-31T03:02:50;17.90;99.90
18091;DHT22;9172;49.948;9.208;2023-07-31T03:05:19;17.90;99.90
18091;DHT22;9172;49.948;9.208;2023-07-31T03:07:50;17.90;99.90
18091;DHT22;9172;49.948;9.208;2023-07-31T03:10:20;17.80;99.90
18091;DHT22;9172;49.948;9.208;2023-07-31T03:12:50;17.80;99.90
18091;DHT22;9172;49.948;9.208;2023-07-31T03:15:19;17.80;99.90
18091;DHT22;9172;49.948;9.208;2023-07-31T03:17:49;17.80;99.90
18091;DHT22;9172;49.948;9.208;2023-07-31T03:20:17;17.80;99.90
18091;DHT22;9172;49.948;9.208;2023-07-31T03:22:47;17.80;99.90
18091;DHT22;9172;49.948;9.208;2023-07-31T03:25:15;17.80;99.90
18091;DHT22;9172;49.948;9.208;2023-07-31T03:27:44;17.80;99.90
18091;DHT22;9172;49.948;9.208;2023-07-31T03:30:12;17.80;99.90
18091;DHT22;9172;49.948;9.208;2023-07-31T03:32:42;17.80;99.90
18091;DHT22;9172;49.948;9.208;2023-07-31T03:35:11;17.80;99.90
18091;DHT22;9172;49.948;9.208;2023-07-31T03:37:40;17.80;99.90
18091;DHT22;9172;49.948;9.208;2023-07-31T03:40:11;17.80;99.90
18091;DHT22;9172;49.948;9.208;2023-07-31T03:42:39;17.80;99.90
18091;DHT22;9172;49.948;9.208;2023-07-31T03:45:12;17.80;99.90
18091;DHT22;9172;49.948;9.208;2023-07-31T03:47:40;17.70;99.90
18091;DHT22;9172;49.948;9.208;2023-07-31T03:50:09;17.70;99.90
18091;DHT22;9172;49.948;9.208;2023-07-31T03:52:38;17.70;99.90
18091;DHT22;9172;49.948;9.208;2023-07-31T03:55:07;17.70;99.90
18091;DHT22;9172;49.948;9.208;2023-07-31T03:57:37;17.70;99.90
18091;DHT22;9172;49.948;9.208;2023-07-31T04:00:08;17.70;99.90
18091;DHT22;9172;49.948;9.208;2023-07-31T04:02:36;17.70;99.90
18091;DHT22;9172;49.948;9.208;2023-07-31T04:05:05;17.70;99.90
18091;DHT22;9172;49.948;9.208;2023-07-31T04:07:36;17.70;99.90
18091;DHT22;9172;49.948;9.208;2023-07-31T04:10:06;17.70;99.90
18091;DHT22;9172;49.948;9.208;2023-07-31T04:12:35;17.70;99.90
18091;DHT22;9172;49.948;9.208;2023-07-31T04:15:06;17.70;99.90
18091;DHT22;9172;49.948;9.208;2023-07-31T04:17:34;17.70;99.90
18091;DHT22;9172;49.948;9.208;2023-07-31T04:20:05;17.70;99.90
18091;DHT22;9172;49.948;9.208;2023-07-31T04:22:35;17.70;99.90
18091;DHT22;9172;49.948;9.208;2023-07-31T04:25:05;17.70;99.90
18091;DHT22;9172;49.948;9.208;2023-07-31T04:27:35;17.70;99.90
18091;DHT22;9172;49.948;9.208;2023-07-31T04:30:06;17.70;99.90
18091;DHT22;9172;49.948;9.208;2023-07-31T04:32:35;17.70;99.90
18091;DHT22;9172;49.948;9.208;2023-07-31T04:35:05;17.70;99.90
18091;DHT22;9172;49.948;9.208;2023-07-31T04:37:33;17.70;99.90
18091;DHT22;9172;49.948;9.208;2023-07-31T04:40:02;17.70;99.90
18091;DHT22;9172;49.948;9.208;2023-07-31T04:42:32;17.70;99.90
18091;DHT22;9172;49.948;9.208;2023-07-31T04:45:03;17.70;99.90
18091;DHT22;9172;49.948;9.208;2023-07-31T04:47:33;17.70;99.90
18091;DHT22;9172;49.948;9.208;2023-07-31T04:50:01;17.70;99.90
18091;DHT22;9172;49.948;9.208;2023-07-31T04:52:31;17.70;99.90
18091;DHT22;9172;49.948;9.208;2023-07-31T04:54:59;17.70;99.90
18091;DHT22;9172;49.948;9.208;2023-07-31T04:57:30;17.70;99.90
18091;DHT22;9172;49.948;9.208;2023-07-31T05:00:00;17.70;99.90
18091;DHT22;9172;49.948;9.208;2023-07-31T05:02:30;17.70;99.90
18091;DHT22;9172;49.948;9.208;2023-07-31T05:04:58;17.70;99.90
18091;DHT22;9172;49.948;9.208;2023-07-31T05:07:28;17.70;99.90
18091;DHT22;9172;49.948;9.208;2023-07-31T05:09:58;17.70;99.90
18091;DHT22;9172;49.948;9.208;2023-07-31T05:12:28;17.70;99.90
18091;DHT22;9172;49.948;9.208;2023-07-31T05:14:58;17.70;99.90
18091;DHT22;9172;49.948;9.208;2023-07-31T05:17:27;17.60;99.90
18091;DHT22;9172;49.948;9.208;2023-07-31T05:19:57;17.60;99.90
18091;DHT22;9172;49.948;9.208;2023-07-31T05:22:25;17.60;99.90
18091;DHT22;9172;49.948;9.208;2023-07-31T05:24:54;17.60;99.90
18091;DHT22;9172;49.948;9.208;2023-07-31T05:27:23;17.60;99.90
18091;DHT22;9172;49.948;9.208;2023-07-31T05:29:54;17.60;99.90
18091;DHT22;9172;49.948;9.208;2023-07-31T05:32:22;17.60;99.90
18091;DHT22;9172;49.948;9.208;2023-07-31T05:34:52;17.60;99.90
18091;DHT22;9172;49.948;9.208;2023-07-31T05:37:21;17.60;99.90
18091;DHT22;9172;49.948;9.208;2023-07-31T05:39:50;17.60;99.90
18091;DHT22;9172;49.948;9.208;2023-07-31T05:42:19;17.70;99.90
18091;DHT22;9172;49.948;9.208;2023-07-31T05:44:49;17.70;99.90
18091;DHT22;9172;49.948;9.208;2023-07-31T05:47:18;17.70;99.90
18091;DHT22;9172;49.948;9.208;2023-07-31T05:49:47;17.70;99.90
18091;DHT22;9172;49.948;9.208;2023-07-31T05:52:17;17.70;99.90
18091;DHT22;9172;49.948;9.208;2023-07-31T05:54:48;17.70;99.90
18091;DHT22;9172;49.948;9.208;2023-07-31T05:57:17;17.70;99.90
18091;DHT22;9172;49.948;9.208;2023-07-31T05:59:47;17.70;99.90
18091;DHT22;9172;49.948;9.208;2023-07-31T06:02:15;17.70;99.90
18091;DHT22;9172;49.948;9.208;2023-07-31T06:04:45;17.70;99.90
18091;DHT22;9172;49.948;9.208;2023-07-31T06:07:14;17.70;99.90
18091;DHT22;9172;49.948;9.208;2023-07-31T06:09:43;17.70;99.90
18091;DHT22;9172;49.948;9.208;2023-07-31T06:12:11;17.60;99.90
18091;DHT22;9172;49.948;9.208;2023-07-31T06:14:41;17.60;99.90
18091;DHT22;9172;49.948;9.208;2023-07-31T06:17:09;17.70;99.90
18091;DHT22;9172;49.948;9.208;2023-07-31T06:19:39;17.70;99.90
18091;DHT22;9172;49.948;9.208;2023-07-31T06:22:08;17.70;99.90
18091;DHT22;9172;49.948;9.208;2023-07-31T06:24:38;17.70;99.90
18091;DHT22;9172;49.948;9.208;2023-07-31T06:27:07;17.70;99.90
18091;DHT22;9172;49.948;9.208;2023-07-31T06:29:36;17.70;99.90
18091;DHT22;9172;49.948;9.208;2023-07-31T06:32:06;17.70;99.90
18091;DHT22;9172;49.948;9.208;2023-07-31T06:34:34;17.70;99.90
18091;DHT22;9172;49.948;9.208;2023-07-31T06:37:03;17.70;99.90
18091;DHT22;9172;49.948;9.208;2023-07-31T06:39:32;17.70;99.90
18091;DHT22;9172;49.948;9.208;2023-07-31T06:42:00;17.70;99.90
18091;DHT22;9172;49.948;9.208;2023-07-31T06:44:29;17.80;99.90
18091;DHT22;9172;49.948;9.208;2023-07-31T06:46:59;17.80;99.90
18091;DHT22;9172;49.948;9.208;2023-07-31T06:49:30;17.80;99.90
18091;DHT22;9172;49.948;9.208;2023-07-31T06:51:58;17.90;99.90
18091;DHT22;9172;49.948;9.208;2023-07-31T06:54:27;17.90;99.90
18091;DHT22;9172;49.948;9.208;2023-07-31T06:56:57;18.00;99.90
18091;DHT22;9172;49.948;9.208;2023-07-31T06:59:25;18.10;99.90
18091;DHT22;9172;49.948;9.208;2023-07-31T07:01:54;18.10;99.90
18091;DHT22;9172;49.948;9.208;2023-07-31T07:04:24;18.10;99.90
18091;DHT22;9172;49.948;9.208;2023-07-31T07:06:53;18.00;99.90
18091;DHT22;9172;49.948;9.208;2023-07-31T07:09:25;18.00;99.90
18091;DHT22;9172;49.948;9.208;2023-07-31T07:11:53;18.10;99.90
18091;DHT22;9172;49.948;9.208;2023-07-31T07:14:24;18.10;99.90
18091;DHT22;9172;49.948;9.208;2023-07-31T07:16:52;18.10;99.90
18091;DHT22;9172;49.948;9.208;2023-07-31T07:19:21;18.10;99.90
18091;DHT22;9172;49.948;9.208;2023-07-31T07:21:49;18.20;99.90
18091;DHT22;9172;49.948;9.208;2023-07-31T07:24:19;18.30;99.90
18091;DHT22;9172;49.948;9.208;2023-07-31T07:26:48;18.30;99.90
18091;DHT22;9172;49.948;9.208;2023-07-31T07:31:57;18.40;99.90
18091;DHT22;9172;49.948;9.208;2023-07-31T07:34:27;18.40;99.90
18091;DHT22;9172;49.948;9.208;2023-07-31T07:36:56;18.50;99.90
18091;DHT22;9172;49.948;9.208;2023-07-31T07:39:24;18.50;99.90
18091;DHT22;9172;49.948;9.208;2023-07-31T07:41:53;18.50;99.90
18091;DHT22;9172;49.948;9.208;2023-07-31T07:44:22;18.60;99.90
18091;DHT22;9172;49.948;9.208;2023-07-31T07:46:52;18.60;99.90
18091;DHT22;9172;49.948;9.208;2023-07-31T07:49:20;18.60;99.90
18091;DHT22;9172;49.948;9.208;2023-07-31T07:51:50;18.70;99.90
18091;DHT22;9172;49.948;9.208;2023-07-31T07:54:19;18.70;99.90
18091;DHT22;9172;49.948;9.208;2023-07-31T07:56:48;18.70;99.90
18091;DHT22;9172;49.948;9.208;2023-07-31T07:59:17;18.80;99.90
18091;DHT22;9172;49.948;9.208;2023-07-31T08:01:47;18.80;99.90
18091;DHT22;9172;49.948;9.208;2023-07-31T08:04:15;18.80;99.90
18091;DHT22;9172;49.948;9.208;2023-07-31T08:06:45;18.80;99.90
18091;DHT22;9172;49.948;9.208;2023-07-31T08:09:15;18.90;99.90
18091;DHT22;9172;49.948;9.208;2023-07-31T08:11:45;18.90;99.90
18091;DHT22;9172;49.948;9.208;2023-07-31T08:14:14;18.90;99.90
18091;DHT22;9172;49.948;9.208;2023-07-31T08:16:42;18.90;99.90
18091;DHT22;9172;49.948;9.208;2023-07-31T08:19:12;19.00;99.90
18091;DHT22;9172;49.948;9.208;2023-07-31T08:21:41;19.00;99.90
18091;DHT22;9172;49.948;9.208;2023-07-31T08:24:10;19.00;99.90
18091;DHT22;9172;49.948;9.208;2023-07-31T08:26:39;19.00;99.90
18091;DHT22;9172;49.948;9.208;2023-07-31T08:29:08;19.00;99.90
18091;DHT22;9172;49.948;9.208;2023-07-31T08:31:37;19.10;99.90
18091;DHT22;9172;49.948;9.208;2023-07-31T08:34:08;19.10;99.90
18091;DHT22;9172;49.948;9.208;2023-07-31T08:36:36;19.20;99.90
18091;DHT22;9172;49.948;9.208;2023-07-31T08:39:06;19.20;99.90
18091;DHT22;9172;49.948;9.208;2023-07-31T08:41:39;19.20;99.90
18091;DHT22;9172;49.948;9.208;2023-07-31T08:44:08;19.20;99.90
18091;DHT22;9172;49.948;9.208;2023-07-31T08:46:37;19.30;99.90
18091;DHT22;9172;49.948;9.208;2023-07-31T08:49:07;19.30;99.90
18091;DHT22;9172;49.948;9.208;2023-07-31T08:51:38;19.20;99.90
18091;DHT22;9172;49.948;9.208;2023-07-31T08:54:09;19.20;99.90
18091;DHT22;9172;49.948;9.208;2023-07-31T08:56:40;19.20;99.90
18091;DHT22;9172;49.948;9.208;2023-07-31T08:59:09;19.20;99.90
18091;DHT22;9172;49.948;9.208;2023-07-31T09:04:18;19.20;99.90
18091;DHT22;9172;49.948;9.208;2023-07-31T09:06:48;19.20;99.90
18091;DHT22;9172;49.948;9.208;2023-07-31T09:09:17;19.30;99.90
18091;DHT22;9172;49.948;9.208;2023-07-31T09:11:48;19.50;99.90
18091;DHT22;9172;49.948;9.208;2023-07-31T09:14:18;19.60;99.90
18091;DHT22;9172;49.948;9.208;2023-07-31T09:16:55;19.70;99.90
18091;DHT22;9172;49.948;9.208;2023-07-31T09:19:28;19.90;99.90
18091;DHT22;9172;49.948;9.208;2023-07-31T09:21:57;20.00;99.90
18091;DHT22;9172;49.948;9.208;2023-07-31T09:24:27;20.20;99.90
18091;DHT22;9172;49.948;9.208;2023-07-31T09:26:57;20.20;99.90
18091;DHT22;9172;49.948;9.208;2023-07-31T09:29:28;20.20;99.90
18091;DHT22;9172;49.948;9.208;2023-07-31T09:31:56;20.20;99.90
18091;DHT22;9172;49.948;9.208;2023-07-31T09:34:30;20.20;99.90
18091;DHT22;9172;49.948;9.208;2023-07-31T09:37:01;20.10;99.90
18091;DHT22;9172;49.948;9.208;2023-07-31T09:39:30;20.10;99.90
18091;DHT22;9172;49.948;9.208;2023-07-31T09:41:59;20.00;99.90
18091;DHT22;9172;49.948;9.208;2023-07-31T09:44:40;19.90;99.90
18091;DHT22;9172;49.948;9.208;2023-07-31T09:47:21;19.90;99.90
18091;DHT22;9172;49.948;9.208;2023-07-31T09:49:52;19.90;99.90
18091;DHT22;9172;49.948;9.208;2023-07-31T09:52:22;19.80;99.90
18091;DHT22;9172;49.948;9.208;2023-07-31T09:54:53;19.70;99.90
18091;DHT22;9172;49.948;9.208;2023-07-31T09:57:22;19.70;99.90
18091;DHT22;9172;49.948;9.208;2023-07-31T09:59:54;19.70;99.90
18091;DHT22;9172;49.948;9.208;2023-07-31T10:02:24;19.60;99.90
18091;DHT22;9172;49.948;9.208;2023-07-31T10:04:56;19.60;99.90
18091;DHT22;9172;49.948;9.208;2023-07-31T10:07:26;19.60;99.90
18091;DHT22;9172;49.948;9.208;2023-07-31T10:09:57;19.50;99.90
18091;DHT22;9172;49.948;9.208;2023-07-31T10:12:27;19.50;99.90
18091;DHT22;9172;49.948;9.208;2023-07-31T10:14:56;19.50;99.90
18091;DHT22;9172;49.948;9.208;2023-07-31T10:17:26;19.50;99.90
18091;DHT22;9172;49.948;9.208;2023-07-31T10:19:56;19.50;99.90
18091;DHT22;9172;49.948;9.208;2023-07-31T10:22:26;19.50;99.90
18091;DHT22;9172;49.948;9.208;2023-07-31T10:24:58;19.50;99.90
18091;DHT22;9172;49.948;9.208;2023-07-31T10:27:27;19.50;99.90
18091;DHT22;9172;49.948;9.208;2023-07-31T10:29:57;19.50;99.90
18091;DHT22;9172;49.948;9.208;2023-07-31T10:32:27;19.60;99.90
18091;DHT22;9172;49.948;9.208;2023-07-31T10:34:59;19.70;99.90
18091;DHT22;9172;49.948;9.208;2023-07-31T10:37:30;19.70;99.90
18091;DHT22;9172;49.948;9.208;2023-07-31T10:40:01;19.70;99.90
18091;DHT22;9172;49.948;9.208;2023-07-31T10:42:31;19.70;99.90
18091;DHT22;9172;49.948;9.208;2023-07-31T10:45:03;19.70;99.90
18091;DHT22;9172;49.948;9.208;2023-07-31T10:47:37;19.70;99.90
18091;DHT22;9172;49.948;9.208;2023-07-31T10:50:15;19.70;99.90
18091;DHT22;9172;49.948;9.208;2023-07-31T10:52:47;19.70;99.90
18091;DHT22;9172;49.948;9.208;2023-07-31T10:55:25;19.80;99.90
18091;DHT22;9172;49.948;9.208;2023-07-31T10:57:56;19.90;99.90
18091;DHT22;9172;49.948;9.208;2023-07-31T11:00:28;19.90;99.90
18091;DHT22;9172;49.948;9.208;2023-07-31T11:02:58;20.00;99.90
18091;DHT22;9172;49.948;9.208;2023-07-31T11:05:48;20.10;99.90
18091;DHT22;9172;49.948;9.208;2023-07-31T11:08:18;20.10;99.90
18091;DHT22;9172;49.948;9.208;2023-07-31T11:10:49;20.10;99.90
18091;DHT22;9172;49.948;9.208;2023-07-31T11:15:55;20.20;99.90
18091;DHT22;9172;49.948;9.208;2023-07-31T11:18:24;20.30;99.90
18091;DHT22;9172;49.948;9.208;2023-07-31T11:20:52;20.30;99.90
18091;DHT22;9172;49.948;9.208;2023-07-31T11:23:23;20.40;99.90
18091;DHT22;9172;49.948;9.208;2023-07-31T11:25:53;20.40;99.90
18091;DHT22;9172;49.948;9.208;2023-07-31T11:28:23;20.50;99.90
18091;DHT22;9172;49.948;9.208;2023-07-31T11:30:54;20.70;99.90
18091;DHT22;9172;49.948;9.208;2023-07-31T11:33:22;20.80;99.90
18091;DHT22;9172;49.948;9.208;2023-07-31T11:35:51;20.90;99.90
18091;DHT22;9172;49.948;9.208;2023-07-31T11:38:23;21.10;99.90
18091;DHT22;9172;49.948;9.208;2023-07-31T11:40:53;21.30;99.90
18091;DHT22;9172;49.948;9.208;2023-07-31T11:43:23;21.40;99.90
18091;DHT22;9172;49.948;9.208;2023-07-31T11:45:53;21.50;99.90
18091;DHT22;9172;49.948;9.208;2023-07-31T11:48:23;21.40;99.90
18091;DHT22;9172;49.948;9.208;2023-07-31T11:50:57;21.40;99.90
18091;DHT22;9172;49.948;9.208;2023-07-31T11:56:04;21.20;99.90
18091;DHT22;9172;49.948;9.208;2023-07-31T11:58:35;21.10;99.90
18091;DHT22;9172;49.948;9.208;2023-07-31T12:01:05;21.00;99.90
18091;DHT22;9172;49.948;9.208;2023-07-31T12:03:33;21.00;99.90
18091;DHT22;9172;49.948;9.208;2023-07-31T12:06:02;21.00;99.90
18091;DHT22;9172;49.948;9.208;2023-07-31T12:08:32;21.00;99.90
18091;DHT22;9172;49.948;9.208;2023-07-31T12:11:04;20.90;99.90
18091;DHT22;9172;49.948;9.208;2023-07-31T12:13:34;21.00;99.90
18091;DHT22;9172;49.948;9.208;2023-07-31T12:16:04;20.90;99.90
18091;DHT22;9172;49.948;9.208;2023-07-31T12:18:35;21.00;99.90
18091;DHT22;9172;49.948;9.208;2023-07-31T12:21:09;21.00;99.90
18091;DHT22;9172;49.948;9.208;2023-07-31T12:23:39;21.00;99.90
18091;DHT22;9172;49.948;9.208;2023-07-31T12:26:11;21.00;99.90
18091;DHT22;9172;49.948;9.208;2023-07-31T12:28:42;21.10;99.90
18091;DHT22;9172;49.948;9.208;2023-07-31T12:31:12;21.10;99.90
18091;DHT22;9172;49.948;9.208;2023-07-31T12:33:42;21.10;99.90
18091;DHT22;9172;49.948;9.208;2023-07-31T12:36:12;21.10;99.90
18091;DHT22;9172;49.948;9.208;2023-07-31T12:38:42;21.10;99.90
18091;DHT22;9172;49.948;9.208;2023-07-31T12:41:11;21.10;99.90
18091;DHT22;9172;49.948;9.208;2023-07-31T12:43:43;21.00;99.90
18091;DHT22;9172;49.948;9.208;2023-07-31T12:46:13;21.00;99.90
18091;DHT22;9172;49.948;9.208;2023-07-31T12:48:42;21.00;99.90
18091;DHT22;9172;49.948;9.208;2023-07-31T12:51:10;21.00;99.90
18091;DHT22;9172;49.948;9.208;2023-07-31T12:53:39;21.10;99.90
18091;DHT22;9172;49.948;9.208;2023-07-31T12:56:08;21.10;99.90
18091;DHT22;9172;49.948;9.208;2023-07-31T12:58:37;21.20;99.90
18091;DHT22;9172;49.948;9.208;2023-07-31T13:01:06;21.30;99.90
18091;DHT22;9172;49.948;9.208;2023-07-31T13:03:35;21.30;99.90
18091;DHT22;9172;49.948;9.208;2023-07-31T13:06:04;21.30;99.90
18091;DHT22;9172;49.948;9.208;2023-07-31T13:08:33;21.30;99.90
18091;DHT22;9172;49.948;9.208;2023-07-31T13:11:01;21.40;99.90
18091;DHT22;9172;49.948;9.208;2023-07-31T13:13:31;21.30;99.90
18091;DHT22;9172;49.948;9.208;2023-07-31T13:16:00;21.20;99.90
18091;DHT22;9172;49.948;9.208;2023-07-31T13:18:30;21.20;99.90
18091;DHT22;9172;49.948;9.208;2023-07-31T13:20:58;21.10;99.90
18091;DHT22;9172;49.948;9.208;2023-07-31T13:23:28;21.00;99.90
18091;DHT22;9172;49.948;9.208;2023-07-31T13:25:56;21.00;99.90
18091;DHT22;9172;49.948;9.208;2023-07-31T13:28:26;21.00;99.90
18091;DHT22;9172;49.948;9.208;2023-07-31T13:30:55;21.10;99.90
18091;DHT22;9172;49.948;9.208;2023-07-31T13:33:24;21.10;99.90
18091;DHT22;9172;49.948;9.208;2023-07-31T13:35:52;21.20;99.90
18091;DHT22;9172;49.948;9.208;2023-07-31T13:38:21;21.10;99.90
18091;DHT22;9172;49.948;9.208;2023-07-31T13:40:50;21.20;99.90
18091;DHT22;9172;49.948;9.208;2023-07-31T13:43:20;21.20;99.90
18091;DHT22;9172;49.948;9.208;2023-07-31T13:45:49;21.20;99.90
18091;DHT22;9172;49.948;9.208;2023-07-31T13:48:18;21.20;99.90
18091;DHT22;9172;49.948;9.208;2023-07-31T13:50:47;21.20;99.90
18091;DHT22;9172;49.948;9.208;2023-07-31T13:53:16;21.20;99.90
18091;DHT22;9172;49.948;9.208;2023-07-31T13:55:45;21.30;99.90
18091;DHT22;9172;49.948;9.208;2023-07-31T13:58:15;21.30;99.90
18091;DHT22;9172;49.948;9.208;2023-07-31T14:00:44;21.30;99.90
18091;DHT22;9172;49.948;9.208;2023-07-31T14:03:13;21.40;99.90
18091;DHT22;9172;49.948;9.208;2023-07-31T14:05:42;21.40;99.90
18091;DHT22;9172;49.948;9.208;2023-07-31T14:08:11;21.30;99.90
18091;DHT22;9172;49.948;9.208;2023-07-31T14:10:41;21.40;99.90
18091;DHT22;9172;49.948;9.208;2023-07-31T14:13:09;21.40;99.90
18091;DHT22;9172;49.948;9.208;2023-07-31T14:15:39;21.40;99.90
18091;DHT22;9172;49.948;9.208;2023-07-31T14:18:08;21.50;99.90
18091;DHT22;9172;49.948;9.208;2023-07-31T14:20:38;21.50;99.90
18091;DHT22;9172;49.948;9.208;2023-07-31T14:23:07;20.80;99.90
18091;DHT22;9172;49.948;9.208;2023-07-31T14:25:35;21.60;99.90
18091;DHT22;9172;49.948;9.208;2023-07-31T14:28:05;21.70;99.90
18091;DHT22;9172;49.948;9.208;2023-07-31T14:30:34;21.60;99.90
18091;DHT22;9172;49.948;9.208;2023-07-31T14:33:03;21.60;99.90
18091;DHT22;9172;49.948;9.208;2023-07-31T14:35:31;21.50;99.90
18091;DHT22;9172;49.948;9.208;2023-07-31T14:38:01;21.50;99.90
18091;DHT22;9172;49.948;9.208;2023-07-31T14:40:31;21.40;99.90
18091;DHT22;9172;49.948;9.208;2023-07-31T14:42:59;21.40;99.90
18091;DHT22;9172;49.948;9.208;2023-07-31T14:45:28;21.30;99.90
18091;DHT22;9172;49.948;9.208;2023-07-31T14:47:56;21.30;99.90
18091;DHT22;9172;49.948;9.208;2023-07-31T14:50:25;21.30;99.90
18091;DHT22;9172;49.948;9.208;2023-07-31T14:52:54;21.20;99.90
18091;DHT22;9172;49.948;9.208;2023-07-31T14:55:24;21.20;99.90
18091;DHT22;9172;49.948;9.208;2023-07-31T14:57:53;21.30;99.90
18091;DHT22;9172;49.948;9.208;2023-07-31T15:00:21;21.30;99.90
18091;DHT22;9172;49.948;9.208;2023-07-31T15:02:52;21.30;99.90
18091;DHT22;9172;49.948;9.208;2023-07-31T15:05:21;21.30;99.90
18091;DHT22;9172;49.948;9.208;2023-07-31T15:07:49;21.30;99.90
18091;DHT22;9172;49.948;9.208;2023-07-31T15:10:18;21.30;99.90
18091;DHT22;9172;49.948;9.208;2023-07-31T15:12:48;21.20;99.90
18091;DHT22;9172;49.948;9.208;2023-07-31T15:15:17;21.20;99.90
18091;DHT22;9172;49.948;9.208;2023-07-31T15:17:46;21.20;99.90
18091;DHT22;9172;49.948;9.208;2023-07-31T15:20:14;21.20;99.90
18091;DHT22;9172;49.948;9.208;2023-07-31T15:22:43;21.20;99.90
18091;DHT22;9172;49.948;9.208;2023-07-31T15:25:13;21.20;99.90
18091;DHT22;9172;49.948;9.208;2023-07-31T15:27:42;21.20;99.90
18091;DHT22;9172;49.948;9.208;2023-07-31T15:30:11;21.20;99.90
18091;DHT22;9172;49.948;9.208;2023-07-31T15:32:40;21.20;99.90
18091;DHT22;9172;49.948;9.208;2023-07-31T15:35:09;21.10;99.90
18091;DHT22;9172;49.948;9.208;2023-07-31T15:37:37;21.10;99.90
18091;DHT22;9172;49.948;9.208;2023-07-31T15:40:08;21.10;99.90
18091;DHT22;9172;49.948;9.208;2023-07-31T15:42:38;21.00;99.90
18091;DHT22;9172;49.948;9.208;2023-07-31T15:45:09;21.00;99.90
18091;DHT22;9172;49.948;9.208;2023-07-31T15:47:39;21.10;99.90
18091;DHT22;9172;49.948;9.208;2023-07-31T15:50:09;21.10;99.90
18091;DHT22;9172;49.948;9.208;2023-07-31T15:52:38;21.00;99.90
18091;DHT22;9172;49.948;9.208;2023-07-31T15:55:09;21.00;99.90
18091;DHT22;9172;49.948;9.208;2023-07-31T15:57:39;20.90;99.90
18091;DHT22;9172;49.948;9.208;2023-07-31T16:00:10;20.90;99.90
18091;DHT22;9172;49.948;9.208;2023-07-31T16:02:39;20.90;99.90
18091;DHT22;9172;49.948;9.208;2023-07-31T16:05:08;20.90;99.90
18091;DHT22;9172;49.948;9.208;2023-07-31T16:07:37;20.90;99.90
18091;DHT22;9172;49.948;9.208;2023-07-31T16:10:08;20.90;99.90
18091;DHT22;9172;49.948;9.208;2023-07-31T16:12:38;20.90;99.90